Time;durP1;ratioP1;P1;durP2;ratioP2;P2;SDS_P1;SDS_P2;PMS_P1;PMS_P2;Temp;Humidity;BMP_temperature;BMP_pressure;BME280_temperature;BME280_humidity;BME280_pressure;Samples;Min_cycle;Max_cycle;Signal;HPM_P1;HPM_P2
2022/02/05 00:43:14;;;;;;;11.50;3.47;;;;;;;5.16;88.21;101516.53;4860389;29;20045;-53
2022/02/05 00:45:46;;;;;;;8.93;3.55;;;;;;;5.15;88.06;101512.19;4860367;29;20046;-53
2022/02/05 00:48:14;;;;;;;7.80;3.03;;;;;;;5.13;88.56;101512.41;4843870;29;20072;-52
2022/02/05 00:50:48;;;;;;;8.38;3.13;;;;;;;5.15;88.06;101514.06;4860613;29;20489;-54
2022/02/05 00:53:30;;;;;;;11.63;3.72;;;;;;;5.15;88.10;101514.06;4859589;29;20048;-54
2022/02/05 00:56:16;;;;;;;11.73;3.33;;;;;;;5.13;87.88;101523.22;4843730;29;20049;-49
2022/02/05 00:58:44;;;;;;;8.70;3.13;;;;;;;5.11;87.93;101514.50;4860237;29;20046;-53
2022/02/05 01:01:12;;;;;;;9.85;3.50;;;;;;;5.10;87.96;101520.94;4859756;29;20049;-51
2022/02/05 01:03:39;;;;;;;10.20;3.10;;;;;;;5.10;88.00;101534.44;4860091;29;20144;-53
2022/02/05 01:06:07;;;;;;;8.65;3.30;;;;;;;5.09;88.32;101540.88;4860341;29;20049;-52
2022/02/05 01:08:37;;;;;;;11.45;3.20;;;;;;;5.10;88.33;101541.72;4860449;29;20061;-53
2022/02/05 01:11:04;;;;;;;9.77;3.42;;;;;;;5.09;88.26;101543.56;4860138;29;20092;-50
2022/02/05 01:13:33;;;;;;;11.73;3.38;;;;;;;5.09;87.94;101543.56;4860509;29;20052;-50
2022/02/05 01:16:22;;;;;;;13.60;3.22;;;;;;;5.08;87.82;101551.91;4859785;29;20406;-52
2022/02/05 01:18:50;;;;;;;9.43;3.17;;;;;;;5.05;88.10;101557.72;4859977;29;20420;-51
2022/02/05 01:24:07;;;;;;;10.82;3.25;;;;;;;5.03;88.36;101559.84;4862613;29;20053;-49
2022/02/05 01:29:25;;;;;;;10.27;3.80;;;;;;;5.03;88.52;101576.03;4863554;29;20447;-48
2022/02/05 01:31:56;;;;;;;11.82;3.50;;;;;;;5.02;88.21;101580.59;4863091;29;20513;-49
2022/02/05 01:34:33;;;;;;;11.25;4.15;;;;;;;4.99;88.13;101583.72;4863523;29;20446;-50
2022/02/05 01:56:45;;;;;;;12.60;4.00;;;;;;;5.02;87.85;101607.59;4777390;30;20039;-47
2022/02/05 01:59:21;;;;;;;9.93;4.03;;;;;;;4.97;88.11;101611.97;4773006;30;20051;-45
2022/02/05 02:04:58;;;;;;;13.30;4.07;;;;;;;4.96;88.30;101621.13;4786364;30;20056;-44
2022/02/05 02:27:01;;;;;;;11.02;3.50;;;;;;;4.86;87.84;101640.47;4720810;30;20065;-50
2022/02/05 02:29:42;;;;;;;16.40;3.92;;;;;;;4.84;87.87;101637.16;4751706;30;20059;-49
2022/02/05 02:32:10;;;;;;;9.90;3.80;;;;;;;4.84;87.88;101648.78;4751638;30;20051;-48
2022/02/05 02:34:43;;;;;;;10.00;3.60;;;;;;;4.85;88.10;101638.78;4750396;30;20151;-48
2022/02/05 02:37:15;;;;;;;12.60;4.07;;;;;;;4.89;87.83;101645.44;4751018;30;20589;-50
2022/02/05 02:42:18;;;;;;;10.68;3.65;;;;;;;4.88;87.89;101652.72;4751659;30;20415;-52
2022/02/05 02:44:45;;;;;;;10.40;3.80;;;;;;;4.90;88.13;101655.19;4751584;30;20048;-49
2022/02/05 02:47:14;;;;;;;17.02;4.40;;;;;;;4.91;87.21;101659.56;4750619;30;20451;-48
2022/02/05 02:57:53;;;;;;;12.88;4.53;;;;;;;4.84;87.84;101670.38;4861051;29;20045;-47
2022/02/05 03:00:21;;;;;;;12.18;3.70;;;;;;;4.84;87.42;101678.47;4861623;29;20088;-47
2022/02/05 03:02:49;;;;;;;12.80;4.20;;;;;;;4.83;87.83;101665.16;4862049;29;20046;-48
2022/02/05 03:05:16;;;;;;;10.73;3.60;;;;;;;4.80;87.72;101674.53;4861277;29;20085;-49
2022/02/05 03:07:44;;;;;;;12.98;3.60;;;;;;;4.77;87.88;101672.25;4861748;29;20056;-49
2022/02/05 03:10:12;;;;;;;13.55;4.13;;;;;;;4.77;87.79;101679.53;4843483;29;20056;-49
2022/02/05 03:12:40;;;;;;;12.02;3.80;;;;;;;4.76;88.15;101684.06;4854832;29;20090;-49
2022/02/05 03:15:08;;;;;;;13.23;3.65;;;;;;;4.77;87.63;101684.91;4861733;29;20049;-48
2022/02/05 03:17:40;;;;;;;10.48;3.55;;;;;;;4.76;87.58;101689.47;4860918;29;20066;-47
2022/02/05 03:20:08;;;;;;;10.95;4.00;;;;;;;4.76;87.81;101691.34;4861217;29;20053;-48
2022/02/05 03:22:35;;;;;;;12.05;4.07;;;;;;;4.78;87.66;101700.06;4844930;29;20058;-48
2022/02/05 03:25:03;;;;;;;11.90;4.10;;;;;;;4.76;87.39;101697.56;4861512;29;20053;-48
2022/02/05 03:27:31;;;;;;;10.82;3.85;;;;;;;4.75;87.32;101703.19;4860726;29;20493;-49
2022/02/05 03:29:59;;;;;;;11.77;3.60;;;;;;;4.75;88.02;101698.63;4861199;29;20121;-50
2022/02/05 03:32:27;;;;;;;10.35;3.78;;;;;;;4.74;87.56;101701.50;4861151;29;20396;-48
2022/02/05 03:34:55;;;;;;;14.30;4.20;;;;;;;4.74;87.72;101718.56;4861670;29;20060;-49
2022/02/05 03:37:22;;;;;;;13.77;4.53;;;;;;;4.75;87.29;101714.00;4861050;29;20046;-48
2022/02/05 03:39:50;;;;;;;11.43;4.07;;;;;;;4.74;87.55;101720.41;4860939;29;20124;-48
2022/02/05 03:42:17;;;;;;;12.85;4.50;;;;;;;4.72;87.64;101720.63;4860901;29;20420;-51
2022/02/05 03:44:45;;;;;;;13.07;4.82;;;;;;;4.70;88.07;101720.00;4861576;29;20045;-52
2022/02/05 03:47:12;;;;;;;11.85;4.22;;;;;;;4.72;88.16;101714.41;4860601;29;20425;-52
2022/02/05 03:49:40;;;;;;;14.00;4.72;;;;;;;4.75;88.02;101719.38;4860937;29;20057;-50
2022/02/05 03:52:08;;;;;;;13.55;4.55;;;;;;;4.72;88.12;101723.34;4860941;29;20053;-50
2022/02/05 03:54:35;;;;;;;11.52;4.05;;;;;;;4.73;88.37;101710.66;4860802;29;20045;-49
2022/02/05 03:57:03;;;;;;;11.32;4.10;;;;;;;4.72;87.86;101711.72;4860535;29;20492;-48
2022/02/05 03:59:31;;;;;;;11.43;4.18;;;;;;;4.65;88.05;101712.53;4860678;29;20049;-51
2022/02/05 04:02:01;;;;;;;12.57;4.40;;;;;;;4.66;88.32;101714.16;4859149;29;20052;-55
2022/02/05 04:04:29;;;;;;;13.45;4.22;;;;;;;4.67;87.99;101723.13;4861165;29;20060;-51
2022/02/05 04:06:56;;;;;;;10.57;3.95;;;;;;;4.63;88.11;101717.28;4844272;29;20147;-49
2022/02/05 04:09:33;;;;;;;13.70;4.32;;;;;;;4.63;87.99;101720.00;4860951;29;20038;-51
2022/02/05 04:17:26;;;;;;;;;;;;;;;4.67;88.17;101723.94;4860547;29;20089;-51
2022/02/05 04:19:54;;;;;;;12.48;4.20;;;;;;;4.63;87.63;101728.09;4860973;29;20386;-54
2022/02/05 04:22:22;;;;;;;18.13;4.57;;;;;;;4.62;88.29;101726.44;4860367;29;20053;-48
2022/02/05 04:24:49;;;;;;;10.80;4.30;;;;;;;4.64;87.80;101732.47;4860869;29;20056;-54
2022/02/05 04:27:17;;;;;;;11.98;4.10;;;;;;;4.61;88.06;101740.97;4860295;29;20046;-48
2022/02/05 04:29:44;;;;;;;8.85;3.95;;;;;;;4.60;88.04;101738.47;4860792;29;20137;-50
2022/02/05 04:32:13;;;;;;;14.65;4.63;;;;;;;4.60;88.14;101736.59;4859832;29;20045;-49
2022/02/05 04:34:42;;;;;;;12.05;3.58;;;;;;;4.63;87.57;101744.28;4860756;29;20049;-50
2022/02/05 04:37:10;;;;;;;13.38;4.20;;;;;;;4.60;88.24;101750.09;4844083;29;20056;-50
2022/02/05 04:39:43;;;;;;;9.60;3.85;;;;;;;4.56;88.41;101751.53;4843371;29;20062;-48
2022/02/05 04:42:19;;;;;;;11.18;4.07;;;;;;;4.54;88.18;101750.91;4860150;29;20049;-48
2022/02/05 04:47:56;;;;;;;13.05;4.18;;;;;;;4.57;88.25;101755.91;4821610;29;20418;-54
2022/02/05 04:59:02;;;;;;;14.82;4.57;;;;;;;4.55;88.20;101763.38;4823412;29;20059;-48
2022/02/05 05:04:30;;;;;;;15.07;4.78;;;;;;;4.40;88.90;101770.81;4823280;29;20459;-48
2022/02/05 05:10:04;;;;;;;;;;;;;;;4.37;89.68;101773.91;4823702;29;20434;-50
2022/02/05 05:20:28;;;;;;;13.57;4.38;;;;;;;4.41;89.64;101792.19;4822987;29;20055;-46
2022/02/05 05:22:55;;;;;;;12.85;4.60;;;;;;;4.43;89.48;101798.22;4824565;29;20376;-44
2022/02/05 05:25:23;;;;;;;13.65;4.63;;;;;;;4.45;89.48;101798.88;4854445;29;20052;-45
2022/02/05 05:27:50;;;;;;;13.98;4.75;;;;;;;4.44;89.57;101799.06;4863128;29;20516;-49
2022/02/05 05:30:18;;;;;;;15.10;5.10;;;;;;;4.45;89.63;101795.34;4845107;29;20042;-49
2022/02/05 05:32:46;;;;;;;12.50;4.75;;;;;;;4.45;89.58;101789.94;4844933;29;20056;-47
2022/02/05 05:35:13;;;;;;;15.18;4.40;;;;;;;4.48;89.62;101787.66;4845048;29;20046;-46
2022/02/05 05:37:41;;;;;;;11.18;4.45;;;;;;;4.48;89.00;101787.66;4863240;29;20061;-46
2022/02/05 05:40:09;;;;;;;13.27;4.35;;;;;;;4.44;89.39;101793.66;4863035;29;20045;-46
2022/02/05 05:42:41;;;;;;;12.50;4.47;;;;;;;4.43;89.36;101800.09;4863067;29;20501;-48
2022/02/05 05:45:36;;;;;;;15.52;4.85;;;;;;;4.49;89.51;101808.19;4863315;29;20045;-48
2022/02/05 05:48:11;;;;;;;17.70;5.00;;;;;;;4.53;88.90;101814.03;4862528;29;20056;-51
2022/02/05 05:53:11;;;;;;;15.10;4.72;;;;;;;4.48;89.04;101822.72;4846181;29;20508;-49
2022/02/05 05:55:44;;;;;;;11.82;4.22;;;;;;;4.48;89.10;101822.72;4862908;29;20041;-52
2022/02/05 05:58:14;;;;;;;11.15;4.38;;;;;;;4.50;88.62;101827.94;4862737;29;20445;-51
2022/02/05 06:00:43;;;;;;;13.50;4.53;;;;;;;4.52;88.47;101827.72;4844504;29;20052;-49
2022/02/05 06:03:11;;;;;;;13.85;4.70;;;;;;;4.54;88.56;101826.47;4844454;29;20058;-49
2022/02/05 06:05:38;;;;;;;14.02;4.55;;;;;;;4.52;88.13;101828.53;4853669;29;20053;-47
2022/02/05 06:08:10;;;;;;;12.70;4.50;;;;;;;4.49;88.26;101827.09;4862590;29;20057;-46
2022/02/05 06:10:38;;;;;;;15.20;4.47;;;;;;;4.48;88.61;101833.53;4862203;29;20553;-48
2022/02/05 06:13:05;;;;;;;13.60;4.43;;;;;;;4.46;88.62;101840.16;4862554;29;20082;-48
2022/02/05 06:15:35;;;;;;;15.60;4.50;;;;;;;4.47;88.74;101839.13;4862306;29;20405;-46
2022/02/05 06:18:03;;;;;;;13.57;3.75;;;;;;;4.49;88.81;101850.53;4862396;29;20499;-48
2022/02/05 06:20:30;;;;;;;11.40;4.35;;;;;;;4.47;88.68;101842.66;4862380;29;20049;-49
2022/02/05 06:22:58;;;;;;;16.65;4.65;;;;;;;4.44;88.62;101848.44;4862320;29;20061;-48
2022/02/05 06:25:27;;;;;;;13.70;3.88;;;;;;;4.43;88.76;101846.81;4862009;29;20045;-51
2022/02/05 06:27:54;;;;;;;12.65;4.57;;;;;;;4.43;88.78;101848.66;4862172;29;20046;-47
2022/02/05 06:30:23;;;;;;;13.13;4.53;;;;;;;4.41;88.82;101853.44;4862005;29;20045;-50
2022/02/05 06:32:50;;;;;;;16.48;4.65;;;;;;;4.48;89.78;101851.59;4862144;29;20049;-49
2022/02/05 06:35:19;;;;;;;11.18;4.18;;;;;;;4.41;89.03;101848.88;4861980;29;20060;-49
2022/02/05 06:37:47;;;;;;;13.45;4.10;;;;;;;4.38;88.71;101851.16;4862397;29;20090;-47
2022/02/05 06:40:14;;;;;;;14.05;4.15;;;;;;;4.36;89.25;101850.50;4861550;29;20034;-50
2022/02/05 06:42:47;;;;;;;11.60;4.32;;;;;;;4.36;89.23;101845.13;4862286;29;20792;-52
2022/02/05 06:45:16;;;;;;;15.45;4.57;;;;;;;4.39;89.43;101850.09;4861863;29;20034;-51
2022/02/05 06:47:45;;;;;;;15.00;4.65;;;;;;;4.37;89.15;101853.00;4861595;29;20038;-52
2022/02/05 06:50:13;;;;;;;11.50;4.50;;;;;;;4.36;88.98;101854.03;4861676;29;21202;-52
2022/02/05 06:52:41;;;;;;;14.13;4.72;;;;;;;4.32;89.46;101860.03;4861579;29;20128;-46
2022/02/05 06:55:10;;;;;;;13.38;4.53;;;;;;;4.33;89.39;101856.28;4845013;29;20124;-49
2022/02/05 06:57:38;;;;;;;11.68;4.15;;;;;;;4.36;89.86;101859.44;4861942;29;20057;-49
2022/02/05 07:00:08;;;;;;;15.13;4.50;;;;;;;4.37;89.89;101862.94;4861766;29;20057;-49
2022/02/05 07:02:35;;;;;;;13.05;3.88;;;;;;;4.41;90.56;101864.22;4861391;29;20053;-49
2022/02/05 07:05:03;;;;;;;13.88;4.88;;;;;;;4.40;89.44;101867.94;4860910;29;20038;-49
2022/02/05 07:07:31;;;;;;;13.27;3.83;;;;;;;4.39;89.66;101877.09;4861544;29;20053;-51
2022/02/05 07:09:58;;;;;;;10.23;4.25;;;;;;;4.38;89.83;101878.97;4861485;29;20045;-49
2022/02/05 07:12:26;;;;;;;13.95;4.53;;;;;;;4.38;89.64;101883.53;4829310;29;20049;-50
2022/02/05 07:15:10;;;;;;;13.15;4.18;;;;;;;4.38;90.06;101883.53;4861297;29;20053;-50
2022/02/05 07:17:52;;;;;;;10.80;3.90;;;;;;;4.39;89.75;101879.78;4861031;29;20148;-49
2022/02/05 07:20:36;;;;;;;14.60;4.57;;;;;;;4.37;89.90;101887.25;4860638;29;20520;-55
2022/02/05 07:31:12;;;;;;;14.70;4.57;;;;;;;4.23;90.87;101900.69;4861119;29;20045;-51
2022/02/05 07:33:40;;;;;;;14.45;4.57;;;;;;;4.24;90.70;101896.09;4852310;29;20045;-49
2022/02/05 07:36:09;;;;;;;18.40;4.90;;;;;;;4.24;90.71;101905.03;4860887;29;20052;-48
2022/02/05 07:38:36;;;;;;;13.35;3.83;;;;;;;4.26;90.73;101902.97;4861134;29;20062;-46
2022/02/05 07:41:04;;;;;;;14.18;4.63;;;;;;;4.29;90.91;101909.00;4860779;29;20048;-51
2022/02/05 07:43:35;;;;;;;13.25;4.85;;;;;;;4.31;90.64;101912.34;4860739;29;20049;-48
2022/02/05 07:46:12;;;;;;;14.48;4.13;;;;;;;4.32;91.11;101914.00;4860832;29;20041;-49
2022/02/05 07:48:40;;;;;;;14.52;5.28;;;;;;;4.31;91.05;101925.81;4859541;29;20496;-50
2022/02/05 07:51:08;;;;;;;11.50;4.13;;;;;;;4.31;91.30;101918.56;4858832;29;20580;-52
2022/02/05 07:53:36;;;;;;;12.25;4.43;;;;;;;4.46;91.95;101923.81;4842621;29;20042;-49
2022/02/05 07:56:04;;;;;;;15.60;4.68;;;;;;;4.57;92.18;101925.09;4860284;29;20088;-49
2022/02/05 07:58:34;;;;;;;12.23;4.10;;;;;;;4.48;90.70;101936.06;4844064;29;20085;-48
2022/02/05 08:01:03;;;;;;;13.43;4.18;;;;;;;4.44;89.99;101929.41;4860952;29;20064;-49
2022/02/05 08:03:31;;;;;;;12.02;4.30;;;;;;;4.39;90.51;101928.34;4860180;29;20170;-46
2022/02/05 08:06:00;;;;;;;11.93;4.10;;;;;;;4.37;90.90;101927.72;4860721;29;20052;-49
2022/02/05 08:08:32;;;;;;;16.27;4.97;;;;;;;4.39;90.42;101937.28;4860477;29;20049;-49
2022/02/05 08:11:06;;;;;;;12.70;4.40;;;;;;;4.33;90.92;101926.44;4860805;29;20426;-46
2022/02/05 08:13:35;;;;;;;13.40;4.10;;;;;;;4.32;91.24;101924.78;4860330;29;20576;-48
2022/02/05 08:16:26;;;;;;;12.55;4.70;;;;;;;4.32;91.32;101932.88;4860843;29;20072;-48
2022/02/05 08:18:54;;;;;;;13.75;4.43;;;;;;;4.33;91.11;101937.22;4860063;29;20054;-48
2022/02/05 08:21:21;;;;;;;13.32;4.30;;;;;;;4.34;91.31;101928.94;4860421;29;20049;-48
2022/02/05 08:23:49;;;;;;;14.80;4.47;;;;;;;4.38;91.43;101932.09;4860245;29;20512;-49
2022/02/05 08:26:16;;;;;;;11.85;4.60;;;;;;;4.43;91.34;101935.03;4860789;29;20060;-49
2022/02/05 08:28:45;;;;;;;13.55;4.65;;;;;;;4.41;91.43;101932.50;4859814;29;20132;-49
2022/02/05 08:31:13;;;;;;;16.15;5.35;;;;;;;4.44;91.15;101933.97;4843641;29;20041;-50
2022/02/05 08:33:43;;;;;;;14.85;4.40;;;;;;;4.42;91.14;101938.72;4862316;29;20041;-51
2022/02/05 08:36:11;;;;;;;27.75;7.50;;;;;;;4.42;91.35;101925.25;4864192;29;20049;-51
2022/02/05 08:38:39;;;;;;;13.68;4.95;;;;;;;4.41;91.29;101921.72;4864170;29;20072;-50
2022/02/05 08:41:07;;;;;;;13.38;4.78;;;;;;;4.39;91.77;101928.34;4864117;29;20050;-49
2022/02/05 08:43:35;;;;;;;18.35;5.75;;;;;;;4.49;92.34;101923.41;4863857;29;20059;-51
2022/02/05 08:46:03;;;;;;;15.70;4.53;;;;;;;4.46;91.68;101927.34;4863272;29;20429;-49
2022/02/05 08:48:31;;;;;;;15.77;4.72;;;;;;;4.60;93.09;101930.94;4863906;29;20049;-53
2022/02/05 08:50:58;;;;;;;17.80;5.10;;;;;;;4.57;92.26;101928.66;4864052;29;20064;-52
2022/02/05 08:53:26;;;;;;;15.05;5.03;;;;;;;4.52;91.97;101936.50;4863205;29;20045;-49
2022/02/05 08:55:55;;;;;;;16.35;5.35;;;;;;;4.54;92.08;101942.53;4863332;29;20413;-51
2022/02/05 08:58:26;;;;;;;15.43;5.22;;;;;;;4.72;92.97;101946.56;4863826;29;20137;-52
2022/02/05 09:01:08;;;;;;;21.52;6.22;;;;;;;4.68;93.24;101940.72;4847060;29;20060;-52
2022/02/05 09:03:57;;;;;;;14.80;4.57;;;;;;;4.64;92.69;101944.84;4863214;29;20082;-50
2022/02/05 09:06:31;;;;;;;21.02;6.25;;;;;;;4.66;92.07;101943.63;4863442;29;20497;-54
2022/02/05 09:09:07;;;;;;;14.68;4.65;;;;;;;4.60;91.87;101949.00;4863702;29;20064;-52
2022/02/05 09:11:53;;;;;;;14.02;4.60;;;;;;;4.54;92.34;101950.63;4847035;29;20084;-52
2022/02/05 09:16:55;;;;;;;15.25;4.75;;;;;;;4.55;92.20;101957.72;4863009;29;20148;-52
2022/02/05 09:19:23;;;;;;;15.77;4.97;;;;;;;4.56;92.53;101953.13;4863041;29;20057;-52
2022/02/05 09:21:50;;;;;;;11.77;4.97;;;;;;;4.52;92.85;101963.47;4863410;29;20073;-51
2022/02/05 09:24:18;;;;;;;14.75;5.15;;;;;;;4.55;92.59;101956.88;4863130;29;20057;-49
2022/02/05 09:26:55;;;;;;;16.45;4.82;;;;;;;4.61;92.42;101969.56;4846739;29;20052;-50
2022/02/05 09:29:23;;;;;;;17.92;5.32;;;;;;;4.52;93.10;101974.28;4861429;29;20431;-50
2022/02/05 09:31:51;;;;;;;13.38;4.65;;;;;;;4.53;93.04;101975.97;4863230;29;20054;-50
2022/02/05 09:34:20;;;;;;;15.52;4.78;;;;;;;4.53;93.30;101992.16;4862671;29;20045;-48
2022/02/05 09:36:48;;;;;;;16.92;5.20;;;;;;;4.55;93.46;101982.00;4862905;29;20441;-48
2022/02/05 09:39:17;;;;;;;16.80;5.07;;;;;;;4.58;93.90;101983.47;4862997;29;20128;-51
2022/02/05 09:41:45;;;;;;;13.30;4.68;;;;;;;4.61;93.36;101989.28;4863115;29;20046;-55
2022/02/05 09:44:13;;;;;;;20.40;5.03;;;;;;;4.68;93.49;101989.31;4864495;29;20045;-55
2022/02/05 09:46:41;;;;;;;17.90;5.05;;;;;;;4.69;93.69;101986.44;4863010;29;20080;-54
2022/02/05 09:49:09;;;;;;;20.63;5.95;;;;;;;4.75;93.87;101983.97;4845681;29;20041;-52
2022/02/05 09:51:44;;;;;;;12.25;4.13;;;;;;;4.76;93.36;101986.44;4865319;29;20426;-51
2022/02/05 09:54:12;;;;;;;14.95;4.80;;;;;;;4.80;93.09;101976.91;4865214;29;20049;-54
2022/02/05 09:56:40;;;;;;;15.13;4.43;;;;;;;4.79;92.92;101975.25;4862978;29;20148;-52
2022/02/05 09:59:07;;;;;;;13.60;4.60;;;;;;;4.79;92.79;101963.63;4862273;29;20050;-53
2022/02/05 10:01:37;;;;;;;18.25;4.75;;;;;;;4.84;92.93;101967.38;4862052;29;20428;-51
2022/02/05 10:04:09;;;;;;;13.40;4.90;;;;;;;4.87;93.12;101974.25;4861874;29;20478;-52
2022/02/05 10:06:47;;;;;;;13.70;4.18;;;;;;;4.90;92.75;101977.38;4862819;29;20160;-53
2022/02/05 10:09:16;;;;;;;11.98;4.30;;;;;;;4.91;92.75;101975.53;4860403;29;20121;-50
2022/02/05 10:11:50;;;;;;;14.30;4.47;;;;;;;4.89;92.16;101973.00;4861897;29;20037;-45
2022/02/05 10:14:29;;;;;;;15.13;4.85;;;;;;;4.90;92.49;101957.63;4862241;29;20072;-49
2022/02/05 10:16:58;;;;;;;17.40;4.60;;;;;;;4.90;92.24;101976.53;4861582;29;20049;-50
2022/02/05 10:19:45;;;;;;;15.98;4.53;;;;;;;4.95;92.58;101957.84;4860721;29;20057;-49
2022/02/05 10:22:13;;;;;;;11.18;4.00;;;;;;;4.94;91.66;101961.59;4861598;29;20483;-53
2022/02/05 10:24:54;;;;;;;12.82;3.67;;;;;;;5.03;92.39;101955.00;4861920;29;20413;-49
2022/02/05 10:27:31;;;;;;;14.23;4.47;;;;;;;5.06;91.86;101964.56;4861981;29;20049;-48
2022/02/05 10:30:27;;;;;;;14.60;4.35;;;;;;;5.18;91.96;101964.81;4861859;29;20046;-49
2022/02/05 10:33:20;;;;;;;14.82;4.38;;;;;;;5.20;89.43;101965.44;4859534;29;20049;-49
2022/02/05 10:44:32;;;;;;;12.75;4.60;;;;;;;5.32;89.57;101970.03;4861293;29;20515;-46
2022/02/05 10:47:00;;;;;;;16.45;4.65;;;;;;;5.46;90.28;101959.22;4844479;29;20141;-47
2022/02/05 10:49:45;;;;;;;16.65;5.05;;;;;;;5.52;89.66;101953.00;4861244;29;20068;-48
2022/02/05 10:52:29;;;;;;;12.77;4.10;;;;;;;5.52;89.26;101953.84;4827599;29;20056;-47
2022/02/05 10:55:18;;;;;;;11.85;4.18;;;;;;;5.52;89.37;101953.84;4852268;29;20409;-48
2022/02/05 11:05:51;;;;;;;16.30;4.43;;;;;;;5.65;87.58;101938.66;4861167;29;20718;-50
2022/02/05 11:08:20;;;;;;;15.73;4.53;;;;;;;5.67;88.36;101950.09;4861265;29;20485;-50
2022/02/05 11:18:57;;;;;;;14.20;4.97;;;;;;;5.83;87.13;101949.69;4855843;29;20066;-52
2022/02/05 11:21:45;;;;;;;13.43;4.30;;;;;;;5.83;85.64;101948.88;4860828;29;20049;-47
2022/02/05 11:24:13;;;;;;;14.13;4.35;;;;;;;5.85;87.57;101953.03;4844806;29;20045;-48
2022/02/05 11:26:41;;;;;;;11.70;4.00;;;;;;;5.83;84.72;101955.09;4861202;29;20053;-50
2022/02/05 11:29:26;;;;;;;12.70;4.35;;;;;;;5.88;85.14;101954.47;4860919;29;20046;-54
2022/02/05 11:31:59;;;;;;;13.33;4.07;;;;;;;5.86;84.24;101953.84;4860924;29;20053;-53
2022/02/05 11:34:33;;;;;;;16.77;4.53;;;;;;;5.85;83.89;101953.03;4857464;29;20137;-53
2022/02/05 11:37:08;;;;;;;17.58;4.72;;;;;;;5.88;85.11;101947.19;4861313;29;20053;-47
2022/02/05 11:39:51;;;;;;;13.35;4.25;;;;;;;5.87;83.30;101934.72;4830372;29;20049;-48
2022/02/05 11:42:36;;;;;;;16.88;4.50;;;;;;;5.89;83.12;101935.34;4860561;29;20050;-49
2022/02/05 11:45:32;;;;;;;13.35;4.03;;;;;;;5.87;83.94;101945.53;4846816;29;20382;-55
2022/02/05 11:48:38;;;;;;;15.80;5.03;;;;;;;5.89;84.40;101943.47;4860262;29;20041;-47
2022/02/05 11:51:24;;;;;;;14.07;4.25;;;;;;;6.04;85.18;101928.88;4857190;29;20056;-50
2022/02/05 11:53:58;;;;;;;13.23;4.45;;;;;;;6.08;84.29;101930.97;4860076;29;20048;-51
2022/02/05 11:57:00;;;;;;;15.52;4.18;;;;;;;6.07;83.80;101931.19;4860336;29;20089;-52
2022/02/05 11:59:32;;;;;;;16.52;4.45;;;;;;;6.13;84.33;101919.50;4860235;29;20132;-49
2022/02/05 12:02:13;;;;;;;14.25;4.38;;;;;;;6.31;87.83;101914.25;4844228;29;20053;-48
2022/02/05 12:04:41;;;;;;;12.52;4.03;;;;;;;6.30;83.87;101901.78;4859786;29;20038;-48
2022/02/05 12:07:10;;;;;;;16.60;4.45;;;;;;;6.36;83.28;101905.50;4860435;29;20045;-47
2022/02/05 12:09:58;;;;;;;15.27;4.28;;;;;;;6.85;88.86;101904.03;4846112;29;20045;-48
2022/02/05 12:12:26;;;;;;;13.43;3.72;;;;;;;6.58;82.51;101898.75;4860291;29;20390;-50
2022/02/05 12:15:15;;;;;;;13.45;4.10;;;;;;;6.45;81.68;101900.69;4860420;29;20041;-48
2022/02/05 12:17:59;;;;;;;15.38;4.10;;;;;;;6.33;80.90;101893.22;4854009;29;20053;-49
2022/02/05 12:20:31;;;;;;;12.50;4.28;;;;;;;6.40;80.40;101902.16;4857504;29;20128;-49
2022/02/05 12:23:23;;;;;;;11.32;3.75;;;;;;;6.32;78.50;101912.38;4860254;29;20049;-48
2022/02/05 12:25:59;;;;;;;12.82;3.88;;;;;;;6.38;79.71;101908.84;4848660;29;20045;-48
2022/02/05 12:28:40;;;;;;;;;;;;;;;6.27;78.57;101902.19;4860924;29;20053;-48
2022/02/05 12:31:14;;;;;;;13.25;4.15;;;;;;;6.12;79.34;101898.91;4860292;29;19924;-48
2022/02/05 12:33:48;;;;;;;21.13;4.00;;;;;;;6.09;78.91;101896.63;4860401;29;20052;-48
2022/02/05 12:36:35;;;;;;;20.80;5.15;;;;;;;6.13;78.90;101896.00;4860103;29;20057;-48
2022/02/05 12:39:09;;;;;;;14.88;4.32;;;;;;;6.25;79.93;101885.31;4860434;29;20102;-50
2022/02/05 12:41:42;;;;;;;14.63;4.18;;;;;;;6.34;80.51;101886.75;4860391;29;20421;-52
2022/02/05 12:44:09;;;;;;;13.10;4.18;;;;;;;6.29;78.63;101896.56;4843551;29;20105;-50
2022/02/05 12:46:50;;;;;;;10.55;3.63;;;;;;;6.30;77.65;101890.97;4860472;29;20045;-49
2022/02/05 12:49:26;;;;;;;12.98;4.03;;;;;;;6.30;77.90;101882.00;4844510;29;20046;-52
2022/02/05 12:51:56;;;;;;;13.07;4.15;;;;;;;6.36;77.42;101873.84;4860124;29;20060;-51
2022/02/05 12:54:27;;;;;;;12.80;3.97;;;;;;;6.45;77.69;101873.63;4859993;29;20072;-51
2022/02/05 12:56:56;;;;;;;13.25;3.83;;;;;;;6.46;77.19;101867.16;4860471;29;20054;-53
2022/02/05 12:59:34;;;;;;;14.07;4.45;;;;;;;6.39;76.93;101862.59;4860347;29;20053;-46
2022/02/05 13:02:10;;;;;;;11.60;3.53;;;;;;;6.46;78.23;101864.44;4860348;29;20072;-51
2022/02/05 13:04:40;;;;;;;11.35;4.22;;;;;;;6.65;77.30;101865.41;4859415;29;20042;-53
2022/02/05 13:07:21;;;;;;;10.32;3.70;;;;;;;6.70;77.15;101855.56;4843667;29;20049;-53
2022/02/05 13:10:00;;;;;;;14.73;4.35;;;;;;;6.72;76.84;101867.03;4859930;29;20045;-49
2022/02/05 13:12:37;;;;;;;13.80;4.82;;;;;;;6.71;75.67;101864.53;4860225;29;20046;-54
2022/02/05 13:15:17;;;;;;;11.93;3.75;;;;;;;6.58;74.45;101855.41;4859726;29;20060;-52
2022/02/05 13:26:53;;;;;;;10.82;3.63;;;;;;;6.63;74.22;101835.81;4831028;29;20496;-49
2022/02/05 13:34:27;;;;;;;11.82;4.32;;;;;;;6.79;76.76;101829.06;4849316;29;20045;-47
2022/02/05 13:37:10;;;;;;;10.63;3.33;;;;;;;6.93;79.08;101827.13;4863121;29;20042;-52
2022/02/05 13:39:52;;;;;;;10.65;3.55;;;;;;;7.06;76.64;101818.88;4863206;29;20046;-47
2022/02/05 13:42:25;;;;;;;15.02;5.18;;;;;;;6.88;71.83;101816.09;4862976;29;20049;-48
2022/02/05 13:45:19;;;;;;;13.13;4.72;;;;;;;6.97;81.11;101814.78;4863584;29;20049;-49
2022/02/05 13:47:51;;;;;;;15.07;3.83;;;;;;;7.04;71.97;101820.97;4863478;29;20045;-48
2022/02/05 13:50:25;;;;;;;10.48;4.18;;;;;;;7.06;73.73;101812.63;4863065;29;20053;-50
2022/02/05 13:52:54;;;;;;;11.20;3.60;;;;;;;7.16;74.61;101823.81;4862812;29;20097;-48
2022/02/05 13:55:25;;;;;;;10.90;3.80;;;;;;;7.07;71.85;101814.28;4862993;29;20044;-48
2022/02/05 13:58:06;;;;;;;13.57;4.35;;;;;;;7.00;69.80;101809.75;4862891;29;20052;-51
2022/02/05 14:00:48;;;;;;;13.90;4.30;;;;;;;6.94;69.92;101805.22;4862645;29;20470;-53
2022/02/05 14:03:36;;;;;;;11.10;4.00;;;;;;;6.86;70.51;101810.91;4862854;29;20045;-53
2022/02/05 14:06:13;;;;;;;14.25;4.07;;;;;;;6.83;70.29;101814.88;4862820;29;20056;-49
2022/02/05 14:08:54;;;;;;;11.80;3.65;;;;;;;6.88;70.40;101805.25;4846225;29;20132;-49
2022/02/05 14:11:31;;;;;;;16.15;4.05;;;;;;;6.89;70.84;101799.63;4862610;29;20041;-52
2022/02/05 14:14:01;;;;;;;11.48;3.75;;;;;;;6.98;74.32;101800.19;4862515;29;20053;-49
2022/02/05 14:16:34;;;;;;;15.13;3.80;;;;;;;6.93;69.92;101797.31;4862340;29;20046;-49
2022/02/05 14:19:04;;;;;;;16.13;4.10;;;;;;;6.89;70.44;101790.66;4862586;29;20050;-48
2022/02/05 14:21:43;;;;;;;14.73;4.13;;;;;;;6.92;72.81;101799.16;4862416;29;20074;-49
2022/02/05 14:24:15;;;;;;;13.65;4.32;;;;;;;6.96;72.15;101786.03;4862679;29;20056;-50
2022/02/05 14:26:54;;;;;;;11.45;3.38;;;;;;;6.97;73.85;101799.34;4830271;29;20045;-51
2022/02/05 14:29:24;;;;;;;8.02;2.80;;;;;;;7.08;74.19;101786.97;4862525;29;20515;-48
2022/02/05 14:31:55;;;;;;;12.43;4.07;;;;;;;7.11;72.50;101788.41;4862210;29;20058;-50
2022/02/05 14:42:21;;;;;;;8.90;3.13;;;;;;;7.03;75.59;101778.69;4862154;29;20046;-49
2022/02/05 14:44:50;;;;;;;13.25;3.92;;;;;;;7.35;77.00;101775.91;4862015;29;20051;-49
2022/02/05 14:47:21;;;;;;;14.23;3.70;;;;;;;7.26;73.25;101769.91;4861591;29;20045;-46
2022/02/05 14:49:51;;;;;;;7.03;2.47;;;;;;;7.17;82.13;101758.56;4861870;29;20600;-49
2022/02/05 14:52:18;;;;;;;12.38;3.65;;;;;;;7.23;75.12;101771.19;4861867;29;20408;-45
2022/02/05 14:54:46;;;;;;;12.52;3.67;;;;;;;7.09;73.86;101764.22;4861684;29;20038;-47
2022/02/05 14:57:14;;;;;;;17.98;3.80;;;;;;;7.05;74.54;101763.03;4861482;29;20042;-45
2022/02/05 14:59:42;;;;;;;11.43;3.53;;;;;;;7.28;75.60;101754.28;4861663;29;20038;-47
2022/02/05 15:02:10;;;;;;;14.32;3.92;;;;;;;7.18;74.27;101760.19;4861476;29;20042;-49